Observation data for Denver City on 01/09/2018      Previous  Date  Next       Current Mesonet Observations  Soil Data  Daily Summary Page  Observations in Plain Language
KDVS 090600Z 20006KT 05/M06 A3012 RMK A01 T00521055  RH  046%=      5-min Rain = 0
KDVS 090605Z 20007KT 05/M05 A3013 RMK A01 T00511053  RH  047%=      5-min Rain = 0
KDVS 090610Z 20006KT 05/M05 A3012 RMK A01 T00511054  RH  047%=      5-min Rain = 0
KDVS 090615Z 20006KT 05/M06 A3012 RMK A01 T00491056  RH  047%=      5-min Rain = 0
KDVS 090620Z 20006KT 05/M05 A3012 RMK A01 T00491054  RH  047%=      5-min Rain = 0
KDVS 090625Z 19005KT 05/M05 A3011 RMK A01 T00501054  RH  047%=      5-min Rain = 0
KDVS 090630Z 20005KT 05/M05 A3011 RMK A01 T00501053  RH  047%=      5-min Rain = 0
KDVS 090635Z 20006KT 05/M05 A3011 RMK A01 T00511052  RH  047%=      5-min Rain = 0
KDVS 090640Z 20006KT 05/M05 A3011 RMK A01 T00511052  RH  047%=      5-min Rain = 0
KDVS 090645Z 20007KT 05/M05 A3011 RMK A01 T00511052  RH  047%=      5-min Rain = 0
KDVS 090650Z 20007KT 05/M05 A3011 RMK A01 T00521051  RH  048%=      5-min Rain = 0
KDVS 090655Z 19007KT 06/M05 A3011 RMK A01 T00551048  RH  047%=      5-min Rain = 0
KDVS 090700Z 19007KT 06/M05 A301 RMK A01 T00561048  RH  047%=      5-min Rain = 0
KDVS 090705Z 19008KT 05/M05 A301 RMK A01 T00531049  RH  048%=      5-min Rain = 0
KDVS 090710Z 19007KT 05/M05 A3009 RMK A01 T00511048  RH  049%=      5-min Rain = 0
KDVS 090715Z 19007KT 05/M05 A3009 RMK A01 T00491049  RH  049%=      5-min Rain = 0
KDVS 090720Z 20007KT 05/M05 A3009 RMK A01 T00461049  RH  050%=      5-min Rain = 0
KDVS 090725Z 20007KT 05/M05 A3009 RMK A01 T00451048  RH  051%=      5-min Rain = 0
KDVS 090730Z 20008KT 05/M05 A3009 RMK A01 T00481047  RH  050%=      5-min Rain = 0
KDVS 090735Z 20007KT 05/M05 A3009 RMK A01 T00481047  RH  050%=      5-min Rain = 0
KDVS 090740Z 21007KT 05/M05 A3009 RMK A01 T00471048  RH  050%=      5-min Rain = 0
KDVS 090745Z 21007KT 05/M05 A3008 RMK A01 T00451049  RH  051%=      5-min Rain = 0
KDVS 090750Z 21007KT 04/M05 A3008 RMK A01 T00431050  RH  051%=      5-min Rain = 0
KDVS 090755Z 21007KT 04/M05 A3008 RMK A01 T00411050  RH  052%=      5-min Rain = 0
KDVS 090800Z 21008KT 04/M05 A3008 RMK A01 T00401050  RH  052%=      5-min Rain = 0
KDVS 090805Z 21008KT 04/M05 A3008 RMK A01 T00391050  RH  052%=      5-min Rain = 0
KDVS 090810Z 21008KT 04/M05 A3008 RMK A01 T00381050  RH  052%=      5-min Rain = 0
KDVS 090815Z 21009KT 04/M05 A3008 RMK A01 T00391049  RH  053%=      5-min Rain = 0
KDVS 090820Z 21009KT 04/M05 A3007 RMK A01 T00401049  RH  052%=      5-min Rain = 0
KDVS 090825Z 21010KT 04/M05 A3007 RMK A01 T00411048  RH  052%=      5-min Rain = 0
KDVS 090830Z 21009KT 04/M05 A3007 RMK A01 T00411048  RH  052%=      5-min Rain = 0
KDVS 090835Z 21009KT 04/M05 A3007 RMK A01 T00391049  RH  053%=      5-min Rain = 0
KDVS 090840Z 21010KT 04/M05 A3007 RMK A01 T00381048  RH  053%=      5-min Rain = 0
KDVS 090845Z 21010KT 04/M05 A3007 RMK A01 T00391048  RH  053%=      5-min Rain = 0
KDVS 090850Z 21010KT 04/M05 A3007 RMK A01 T00391047  RH  054%=      5-min Rain = 0
KDVS 090855Z 21011KT 04/M05 A3006 RMK A01 T00401047  RH  054%=      5-min Rain = 0
KDVS 090900Z 21011KT 04/M05 A3006 RMK A01 T00401046  RH  054%=      5-min Rain = 0
KDVS 090905Z 21010KT 04/M05 A3006 RMK A01 T00401046  RH  054%=      5-min Rain = 0
KDVS 090910Z 21009KT 04/M05 A3006 RMK A01 T00401045  RH  054%=      5-min Rain = 0
KDVS 090915Z 21010KT 04/M05 A3006 RMK A01 T00391045  RH  054%=      5-min Rain = 0
KDVS 090920Z 21011KT 04/M05 A3006 RMK A01 T00381046  RH  055%=      5-min Rain = 0
KDVS 090925Z 22010KT 04/M05 A3006 RMK A01 T00371045  RH  055%=      5-min Rain = 0
KDVS 090930Z 22009KT 04/M05 A3006 RMK A01 T00361046  RH  055%=      5-min Rain = 0
KDVS 090935Z 22009KT 03/M05 A3007 RMK A01 T00331047  RH  056%=      5-min Rain = 0
KDVS 090940Z 22010KT 03/M05 A3007 RMK A01 T00291048  RH  057%=      5-min Rain = 0
KDVS 090945Z 22009KT 03/M05 A3007 RMK A01 T00271048  RH  058%=      5-min Rain = 0
KDVS 090950Z 23008KT 03/M05 A3006 RMK A01 T00251048  RH  058%=      5-min Rain = 0
KDVS 090955Z 23008KT 02/M05 A3006 RMK A01 T00241049  RH  059%=      5-min Rain = 0
KDVS 091000Z 23009KT 02/M05 A3006 RMK A01 T00231049  RH  059%=      5-min Rain = 0
KDVS 091005Z 22009KT 03/M05 A3006 RMK A01 T00271046  RH  059%=      5-min Rain = 0
KDVS 091010Z 23008KT 03/M05 A3006 RMK A01 T00321046  RH  057%=      5-min Rain = 0
KDVS 091015Z 23007KT 03/M05 A3005 RMK A01 T00291048  RH  057%=      5-min Rain = 0
KDVS 091020Z 23008KT 03/M05 A3005 RMK A01 T00261047  RH  059%=      5-min Rain = 0
KDVS 091025Z 23009KT 03/M05 A3005 RMK A01 T00291046  RH  058%=      5-min Rain = 0
KDVS 091030Z 23008KT 03/M05 A3005 RMK A01 T00291047  RH  058%=      5-min Rain = 0
KDVS 091035Z 23006KT 03/M05 A3005 RMK A01 T00261049  RH  058%=      5-min Rain = 0
KDVS 091040Z 23006KT 02/M05 A3004 RMK A01 T00211050  RH  060%=      5-min Rain = 0
KDVS 091045Z 23007KT 02/M05 A3004 RMK A01 T00191050  RH  061%=      5-min Rain = 0
KDVS 091050Z 24006KT 02/M05 A3004 RMK A01 T00171051  RH  060%=      5-min Rain = 0
KDVS 091055Z 24006KT 01/M05 A3004 RMK A01 T00131053  RH  062%=      5-min Rain = 0
KDVS 091100Z 24007KT 01/M05 A3004 RMK A01 T00141051  RH  062%=      5-min Rain = 0
KDVS 091105Z 25007KT 01/M05 A3004 RMK A01 T00121053  RH  062%=      5-min Rain = 0
KDVS 091110Z 26007KT 01/M05 A3005 RMK A01 T00091053  RH  064%=      5-min Rain = 0
KDVS 091115Z 25007KT 01/M05 A3005 RMK A01 T00091051  RH  064%=      5-min Rain = 0
KDVS 091120Z 25006KT 01/M05 A3004 RMK A01 T00131050  RH  063%=      5-min Rain = 0
KDVS 091125Z 26006KT 01/M05 A3004 RMK A01 T00131050  RH  063%=      5-min Rain = 0
KDVS 091130Z 26006KT 02/M05 A3004 RMK A01 T00151048  RH  063%=      5-min Rain = 0
KDVS 091135Z 26006KT 02/M05 A3005 RMK A01 T00191048  RH  061%=      5-min Rain = 0
KDVS 091140Z 25007KT 02/M05 A3005 RMK A01 T00201047  RH  061%=      5-min Rain = 0
KDVS 091145Z 25008KT 02/M05 A3005 RMK A01 T00221047  RH  061%=      5-min Rain = 0
KDVS 091150Z 25008KT 02/M05 A3005 RMK A01 T00181049  RH  061%=      5-min Rain = 0
KDVS 091155Z 25007KT 02/M05 A3005 RMK A01 T00161049  RH  062%=      5-min Rain = 0
KDVS 091200Z 25007KT 02/M05 A3005 RMK A01 T00151049  RH  063%=      5-min Rain = 0
KDVS 091205Z 25007KT 02/M05 A3005 RMK A01 T00151049  RH  063%=      5-min Rain = 0
KDVS 091210Z 26006KT 01/M05 A3005 RMK A01 T00131050  RH  063%=      5-min Rain = 0
KDVS 091215Z 26005KT 01/M05 A3005 RMK A01 T00091052  RH  064%=      5-min Rain = 0
KDVS 091220Z 27006KT 01/M05 A3005 RMK A01 T00061052  RH  065%=      5-min Rain = 0
KDVS 091225Z 29005KT 01/M05 A3005 RMK A01 T00081051  RH  065%=      5-min Rain = 0
KDVS 091230Z 26004KT 01/M05 A3005 RMK A01 T00051053  RH  065%=      5-min Rain = 0
KDVS 091235Z 28006KT 00/M05 A3006 RMK A01 T00021053  RH  066%=      5-min Rain = 0
KDVS 091240Z 28005KT 00/05 A3006 RMK A01 T00-00-54  RH  067%=      5-min Rain = 0
KDVS 091245Z 28006KT M00/M05 A3006 RMK A01 T10011054  RH  068%=      5-min Rain = 0
KDVS 091250Z 29007KT M00/M06 A3006 RMK A01 T10031056  RH  068%=      5-min Rain = 0
KDVS 091255Z 29007KT M01/M06 A3006 RMK A01 T10051057  RH  068%=      5-min Rain = 0
KDVS 091300Z 29007KT M01/M06 A3006 RMK A01 T10071057  RH  069%=      5-min Rain = 0
KDVS 091305Z 29007KT M01/M06 A3006 RMK A01 T10101059  RH  069%=      5-min Rain = 0
KDVS 091310Z 30007KT M01/M06 A3006 RMK A01 T10121060  RH  070%=      5-min Rain = 0
KDVS 091315Z 31006KT M02/M06 A3006 RMK A01 T10151062  RH  070%=      5-min Rain = 0
KDVS 091320Z 31006KT M02/M06 A3006 RMK A01 T10181063  RH  071%=      5-min Rain = 0
KDVS 091325Z 30006KT M02/M06 A3006 RMK A01 T10201064  RH  072%=      5-min Rain = 0
KDVS 091330Z 30007KT M02/M06 A3006 RMK A01 T10201063  RH  072%=      5-min Rain = 0
KDVS 091335Z 29006KT M02/M06 A3006 RMK A01 T10171061  RH  072%=      5-min Rain = 0
KDVS 091340Z 28006KT M01/M06 A3005 RMK A01 T10141061  RH  071%=      5-min Rain = 0
KDVS 091345Z 27005KT M01/M06 A3006 RMK A01 T10141061  RH  070%=      5-min Rain = 0
KDVS 091350Z 27006KT M01/M06 A3006 RMK A01 T10141061  RH  070%=      5-min Rain = 0
KDVS 091355Z 25006KT M01/M06 A3005 RMK A01 T10141062  RH  070%=      5-min Rain = 0
KDVS 091400Z 22006KT M02/M06 A3004 RMK A01 T10171064  RH  070%=      5-min Rain = 0
KDVS 091405Z 22006KT M02/M06 A3005 RMK A01 T10171064  RH  071%=      5-min Rain = 0
KDVS 091410Z 21006KT M02/M07 A3005 RMK A01 T10171065  RH  070%=      5-min Rain = 0
KDVS 091415Z 21004KT M02/M06 A3005 RMK A01 T10151063  RH  070%=      5-min Rain = 0
KDVS 091420Z 22005KT M01/M06 A3005 RMK A01 T10141063  RH  069%=      5-min Rain = 0
KDVS 091425Z 22005KT M01/M06 A3005 RMK A01 T10111060  RH  070%=      5-min Rain = 0
KDVS 091430Z 24005KT M01/M06 A3005 RMK A01 T10081058  RH  069%=      5-min Rain = 0
KDVS 091435Z 27004KT M00/M06 A3005 RMK A01 T10041055  RH  069%=      5-min Rain = 0
KDVS 091440Z 27005KT M00/M06 A3005 RMK A01 T10021055  RH  067%=      5-min Rain = 0
KDVS 091445Z 28006KT 00/06 A3006 RMK A01 T00-00-55  RH  067%=      5-min Rain = 0
KDVS 091450Z 28006KT 01/M05 A3006 RMK A01 T00051052  RH  066%=      5-min Rain = 0
KDVS 091455Z 29004KT 01/M05 A3006 RMK A01 T00101050  RH  064%=      5-min Rain = 0
KDVS 091500Z 29004KT 01/M05 A3006 RMK A01 T00131049  RH  064%=      5-min Rain = 0
KDVS 091505Z 29004KT 02/M05 A3006 RMK A01 T00171047  RH  063%=      5-min Rain = 0
KDVS 091510Z 28004KT 02/M05 A3006 RMK A01 T00221045  RH  062%=      5-min Rain = 0
KDVS 091515Z 28004KT 03/M04 A3007 RMK A01 T00271043  RH  060%=      5-min Rain = 0
KDVS 091520Z 27003KT 03/M04 A3007 RMK A01 T00321042  RH  058%=      5-min Rain = 0
KDVS 091525Z 23003KT 04/M04 A3006 RMK A01 T00371042  RH  057%=      5-min Rain = 0
KDVS 091530Z 22003KT 04/M04 A3006 RMK A01 T00411041  RH  056%=      5-min Rain = 0
KDVS 091535Z 22002KT 04/M04 A3006 RMK A01 T00441041  RH  054%=      5-min Rain = 0
KDVS 091540Z 21003KT 05/M04 A3006 RMK A01 T00471039  RH  054%=      5-min Rain = 0
KDVS 091545Z 22005KT 05/M04 A3005 RMK A01 T00531036  RH  053%=      5-min Rain = 0
KDVS 091550Z 23006KT 06/M03 A3006 RMK A01 T00601031  RH  052%=      5-min Rain = 0
KDVS 091555Z 23006KT 07/M03 A3006 RMK A01 T00681030  RH  050%=      5-min Rain = 0
KDVS 091600Z 24006KT 08/M03 A3006 RMK A01 T00751030  RH  048%=      5-min Rain = 0
KDVS 091605Z 24007KT 08/M03 A3006 RMK A01 T00821030  RH  045%=      5-min Rain = 0
KDVS 091610Z 25007KT 09/M03 A3006 RMK A01 T00861031  RH  044%=      5-min Rain = 0
KDVS 091615Z 26007KT 09/M03 A3007 RMK A01 T00911031  RH  042%=      5-min Rain = 0
KDVS 091620Z 26007KT 09/M03 A3007 RMK A01 T00931033  RH  041%=      5-min Rain = 0
KDVS 091625Z 26006KT 09/M03 A3007 RMK A01 T00941031  RH  041%=      5-min Rain = 0
KDVS 091630Z 25006KT 10/M03 A3007 RMK A01 T00991031  RH  040%=      5-min Rain = 0
KDVS 091635Z 25004KT 11/M03 A3006 RMK A01 T01071029  RH  039%=      5-min Rain = 0
KDVS 091720Z 26004KT 18/M03 A3002 RMK A01 T01751034  RH  024%=      5-min Rain = 0
KDVS 091755Z 23009KT 19/M03 A3002 RMK A01 T01931025  RH  023%=      5-min Rain = 0
KDVS 091800Z 24010KT 20/M03 A3002 RMK A01 T01951027  RH  022%=      5-min Rain = 0
KDVS 091805Z 23010KT 20/M03 A3002 RMK A01 T01951027  RH  022%=      5-min Rain = 0
KDVS 091810Z 24011KT 20/M03 A3001 RMK A01 T01951031  RH  022%=      5-min Rain = 0
KDVS 091815Z 24010KT 20/M03 A3001 RMK A01 T01981033  RH  021%=      5-min Rain = 0
KDVS 091820Z 23011KT 20/M03 A3001 RMK A01 T02021031  RH  021%=      5-min Rain = 0
KDVS 091825Z 23010KT 20/M03 A30 RMK A01 T02041034  RH  020%=      5-min Rain = 0
KDVS 091830Z 24011KT 21/M04 A30 RMK A01 T02071035  RH  019%=      5-min Rain = 0
KDVS 091835Z 24010KT 21/M03 A30 RMK A01 T02081033  RH  020%=      5-min Rain = 0
KDVS 091840Z 24010KT 21/M03 A2999 RMK A01 T02101032  RH  020%=      5-min Rain = 0
KDVS 091845Z 25011KT 21/M04 A2999 RMK A01 T02141043  RH  018%=      5-min Rain = 0
KDVS 091850Z 23011KT 22/M05 A2999 RMK A01 T02161053  RH  016%=      5-min Rain = 0
KDVS 091855Z 23011KT 22/M05 A2998 RMK A01 T02161048  RH  017%=      5-min Rain = 0
KDVS 091900Z 23009KT 22/M04 A2998 RMK A01 T02201043  RH  017%=      5-min Rain = 0
KDVS 091905Z 24011G16KT 22/M05 A2998 RMK A01 T02221051  RH  016%=      5-min Rain = 0
KDVS 091910Z 24009KT 22/M06 A2997 RMK A01 T02231055  RH  015%=      5-min Rain = 0
KDVS 091915Z 24009KT 22/M05 A2997 RMK A01 T02241052  RH  015%=      5-min Rain = 0
KDVS 091920Z 23010KT 22/M05 A2997 RMK A01 T02241049  RH  016%=      5-min Rain = 0
KDVS 091925Z 24010G15KT 23/M05 A2996 RMK A01 T02251053  RH  015%=      5-min Rain = 0
KDVS 091930Z 25010G15KT 23/M06 A2996 RMK A01 T02261055  RH  015%=      5-min Rain = 0
KDVS 091935Z 23010KT 23/M05 A2995 RMK A01 T02271050  RH  015%=      5-min Rain = 0
KDVS 091940Z 24010KT 23/M05 A2995 RMK A01 T02301054  RH  015%=      5-min Rain = 0
KDVS 091945Z 25009KT 23/M06 A2995 RMK A01 T02301057  RH  014%=      5-min Rain = 0
KDVS 091950Z 23011KT 23/M06 A2995 RMK A01 T02331055  RH  014%=      5-min Rain = 0
KDVS 091955Z 24009G14KT 23/M06 A2994 RMK A01 T02301057  RH  014%=      5-min Rain = 0
KDVS 092000Z 25009G14KT 23/M06 A2994 RMK A01 T02331058  RH  014%=      5-min Rain = 0
KDVS 092005Z 25010KT 23/M06 A2994 RMK A01 T02331058  RH  014%=      5-min Rain = 0
KDVS 092010Z 24009G14KT 23/M06 A2994 RMK A01 T02341060  RH  014%=      5-min Rain = 0
KDVS 092015Z 24009G14KT 24/M06 A2993 RMK A01 T02351059  RH  014%=      5-min Rain = 0
KDVS 092020Z 23011KT 24/M06 A2993 RMK A01 T02371058  RH  014%=      5-min Rain = 0
KDVS 092025Z 24010KT 24/M06 A2993 RMK A01 T02361059  RH  014%=      5-min Rain = 0
KDVS 092030Z 23009KT 24/M05 A2993 RMK A01 T02371054  RH  014%=      5-min Rain = 0
KDVS 092035Z 22011KT 24/M06 A2992 RMK A01 T02371055  RH  014%=      5-min Rain = 0
KDVS 092040Z 24010KT 24/M05 A2992 RMK A01 T02361050  RH  015%=      5-min Rain = 0
KDVS 092045Z 23010G15KT 24/M05 A2992 RMK A01 T02381047  RH  015%=      5-min Rain = 0
KDVS 092050Z 23009KT 24/M04 A2992 RMK A01 T02391042  RH  015%=      5-min Rain = 0
KDVS 092055Z 23011KT 24/M03 A2992 RMK A01 T02391033  RH  016%=      5-min Rain = 0
KDVS 092100Z 23010KT 24/M03 A2992 RMK A01 T02391029  RH  017%=      5-min Rain = 0
KDVS 092105Z 23011KT 24/M03 A2992 RMK A01 T02391027  RH  017%=      5-min Rain = 0
KDVS 092110Z 23012KT 24/M02 A2992 RMK A01 T02381022  RH  018%=      5-min Rain = 0
KDVS 092115Z 22010KT 24/M02 A2992 RMK A01 T02371019  RH  018%=      5-min Rain = 0
KDVS 092120Z 24011KT 24/M02 A2992 RMK A01 T02381018  RH  018%=      5-min Rain = 0
KDVS 092125Z 23010KT 24/M02 A2992 RMK A01 T02371017  RH  018%=      5-min Rain = 0
KDVS 092130Z 22010KT 24/M02 A2991 RMK A01 T02381017  RH  018%=      5-min Rain = 0
KDVS 092135Z 22010KT 24/M02 A2991 RMK A01 T02381016  RH  019%=      5-min Rain = 0
KDVS 092140Z 24010KT 24/M02 A2991 RMK A01 T02381016  RH  019%=      5-min Rain = 0
KDVS 092145Z 23010KT 24/M01 A2991 RMK A01 T02391014  RH  019%=      5-min Rain = 0
KDVS 092150Z 23012KT 24/M01 A2991 RMK A01 T02361014  RH  019%=      5-min Rain = 0
KDVS 092155Z 22011KT 24/M01 A2991 RMK A01 T02361013  RH  019%=      5-min Rain = 0
KDVS 092200Z 23012KT 24/M01 A2991 RMK A01 T02371013  RH  019%=      5-min Rain = 0
KDVS 092205Z 23010KT 24/M01 A2991 RMK A01 T02371013  RH  019%=      5-min Rain = 0
KDVS 092210Z 23013KT 24/M01 A2991 RMK A01 T02371013  RH  019%=      5-min Rain = 0
KDVS 092215Z 24012KT 24/M01 A2991 RMK A01 T02371013  RH  019%=      5-min Rain = 0
KDVS 092220Z 25012KT 24/M01 A2991 RMK A01 T02361013  RH  019%=      5-min Rain = 0
KDVS 092225Z 25012KT 24/M01 A2991 RMK A01 T02361013  RH  019%=      5-min Rain = 0
KDVS 092230Z 25014KT 24/M01 A2991 RMK A01 T02351013  RH  019%=      5-min Rain = 0
KDVS 092235Z 24012KT 23/M01 A2991 RMK A01 T02301012  RH  020%=      5-min Rain = 0
KDVS 092240Z 25012KT 23/M01 A2991 RMK A01 T02271012  RH  021%=      5-min Rain = 0
KDVS 092245Z 25012KT 23/M01 A2991 RMK A01 T02281012  RH  020%=      5-min Rain = 0
KDVS 092250Z 24011KT 23/M01 A2991 RMK A01 T02311013  RH  020%=      5-min Rain = 0
KDVS 092255Z 24011KT 23/M01 A2991 RMK A01 T02301012  RH  020%=      5-min Rain = 0
KDVS 092300Z 23010KT 23/M01 A2991 RMK A01 T02281012  RH  020%=      5-min Rain = 0
KDVS 092305Z 23009KT 23/M01 A2991 RMK A01 T02271011  RH  021%=      5-min Rain = 0
KDVS 092310Z 24010KT 23/M01 A2991 RMK A01 T02281013  RH  020%=      5-min Rain = 0
KDVS 092315Z 24009KT 23/M01 A2991 RMK A01 T02261013  RH  020%=      5-min Rain = 0
KDVS 092320Z 23009KT 23/M01 A2991 RMK A01 T02251014  RH  020%=      5-min Rain = 0
KDVS 092325Z 24008KT 22/M02 A2992 RMK A01 T02221016  RH  020%=      5-min Rain = 0
KDVS 092330Z 23007KT 22/M02 A2992 RMK A01 T02161016  RH  021%=      5-min Rain = 0
KDVS 092335Z 23007KT 21/M02 A2992 RMK A01 T02101016  RH  022%=      5-min Rain = 0
KDVS 092340Z 23006KT 21/M02 A2992 RMK A01 T02061017  RH  022%=      5-min Rain = 0
KDVS 092345Z 23007KT 20/M02 A2992 RMK A01 T01991016  RH  024%=      5-min Rain = 0
KDVS 092350Z 23006KT 19/M02 A2991 RMK A01 T01931016  RH  024%=      5-min Rain = 0
KDVS 092355Z 23006KT 19/M02 A2991 RMK A01 T01871017  RH  025%=      5-min Rain = 0
KDVS 100000Z 23006KT 18/M02 A2991 RMK A01 T01841017  RH  026%=      5-min Rain = 0
KDVS 100005Z 22006KT 18/M02 A2991 RMK A01 T01831016  RH  026%=      5-min Rain = 0
KDVS 100010Z 22005KT 18/M02 A2991 RMK A01 T01831016  RH  026%=      5-min Rain = 0
KDVS 100015Z 17008KT 18/M02 A2991 RMK A01 T01761019  RH  027%=      5-min Rain = 0
KDVS 100020Z 17005KT 17/M02 A2991 RMK A01 T01701016  RH  028%=      5-min Rain = 0
KDVS 100025Z 18004KT 17/M02 A2991 RMK A01 T01711017  RH  028%=      5-min Rain = 0
KDVS 100030Z 19003KT 17/M02 A2991 RMK A01 T01701017  RH  028%=      5-min Rain = 0
KDVS 100035Z 19004KT 17/M02 A2991 RMK A01 T01691016  RH  028%=      5-min Rain = 0
KDVS 100040Z 18006KT 17/M02 A2991 RMK A01 T01651016  RH  029%=      5-min Rain = 0
KDVS 100045Z 19007KT 16/M02 A2991 RMK A01 T01611016  RH  030%=      5-min Rain = 0
KDVS 100050Z 20007KT 16/M02 A2991 RMK A01 T01571017  RH  030%=      5-min Rain = 0
KDVS 100055Z 19007KT 15/M02 A2991 RMK A01 T01511019  RH  031%=      5-min Rain = 0
KDVS 100100Z 19008KT 15/M02 A2991 RMK A01 T01481019  RH  032%=      5-min Rain = 0
KDVS 100105Z 19007KT 15/M02 A2991 RMK A01 T01471019  RH  032%=      5-min Rain = 0
KDVS 100110Z 19007KT 15/M02 A2991 RMK A01 T01481019  RH  032%=      5-min Rain = 0
KDVS 100115Z 19006KT 15/M02 A2991 RMK A01 T01481019  RH  032%=      5-min Rain = 0
KDVS 100120Z 19006KT 15/M02 A2991 RMK A01 T01491019  RH  032%=      5-min Rain = 0
KDVS 100125Z 19007KT 15/M02 A2991 RMK A01 T01471019  RH  032%=      5-min Rain = 0
KDVS 100130Z 21006KT 14/M02 A2991 RMK A01 T01401022  RH  033%=      5-min Rain = 0
KDVS 100135Z 21005KT 13/M02 A2991 RMK A01 T01331023  RH  034%=      5-min Rain = 0
KDVS 100140Z 21005KT 13/M02 A2991 RMK A01 T01301023  RH  035%=      5-min Rain = 0
KDVS 100145Z 21006KT 13/M02 A2991 RMK A01 T01251024  RH  036%=      5-min Rain = 0
KDVS 100150Z 21008KT 12/M03 A2991 RMK A01 T01161026  RH  037%=      5-min Rain = 0
KDVS 100155Z 22008KT 11/M02 A2991 RMK A01 T01111024  RH  039%=      5-min Rain = 0
KDVS 100200Z 22008KT 11/M03 A2991 RMK A01 T01081025  RH  040%=      5-min Rain = 0
KDVS 100205Z 22008KT 11/M02 A2991 RMK A01 T01061023  RH  041%=      5-min Rain = 0
KDVS 100210Z 22009KT 10/M02 A2991 RMK A01 T01041024  RH  041%=      5-min Rain = 0
KDVS 100215Z 22009KT 10/M02 A2991 RMK A01 T01031023  RH  042%=      5-min Rain = 0
KDVS 100220Z 22009KT 10/M02 A2991 RMK A01 T01021023  RH  042%=      5-min Rain = 0
KDVS 100225Z 22009KT 10/M02 A2991 RMK A01 T00991023  RH  043%=      5-min Rain = 0
KDVS 100230Z 22009KT 10/M02 A2991 RMK A01 T00981023  RH  043%=      5-min Rain = 0
KDVS 100235Z 22010KT 10/M02 A2991 RMK A01 T00961022  RH  044%=      5-min Rain = 0
KDVS 100240Z 22009KT 10/M02 A2991 RMK A01 T00961022  RH  044%=      5-min Rain = 0
KDVS 100245Z 22009KT 09/M02 A2991 RMK A01 T00941022  RH  045%=      5-min Rain = 0
KDVS 100250Z 22009KT 09/M02 A2991 RMK A01 T00931020  RH  045%=      5-min Rain = 0
KDVS 100255Z 21008KT 09/M02 A299 RMK A01 T00911022  RH  045%=      5-min Rain = 0
KDVS 100300Z 21009KT 09/M02 A299 RMK A01 T00881023  RH  046%=      5-min Rain = 0
KDVS 100305Z 21009KT 09/M02 A299 RMK A01 T00871020  RH  047%=      5-min Rain = 0
KDVS 100310Z 21009KT 09/M02 A299 RMK A01 T00881018  RH  048%=      5-min Rain = 0
KDVS 100315Z 21009KT 09/M02 A299 RMK A01 T00891017  RH  048%=      5-min Rain = 0
KDVS 100320Z 21009KT 09/M02 A299 RMK A01 T00911017  RH  047%=      5-min Rain = 0
KDVS 100325Z 21009KT 09/M02 A299 RMK A01 T00881019  RH  047%=      5-min Rain = 0
KDVS 100330Z 21008KT 09/M02 A299 RMK A01 T00861020  RH  048%=      5-min Rain = 0
KDVS 100335Z 20009KT 08/M02 A299 RMK A01 T00831020  RH  049%=      5-min Rain = 0
KDVS 100340Z 21009KT 08/M02 A299 RMK A01 T00801021  RH  049%=      5-min Rain = 0
KDVS 100345Z 20009KT 08/M02 A299 RMK A01 T00791020  RH  050%=      5-min Rain = 0
KDVS 100350Z 20009KT 08/M02 A299 RMK A01 T00811019  RH  050%=      5-min Rain = 0
KDVS 100355Z 21009KT 08/M02 A299 RMK A01 T00821017  RH  050%=      5-min Rain = 0
KDVS 100400Z 22008KT 08/M02 A299 RMK A01 T00821018  RH  050%=      5-min Rain = 0
KDVS 100405Z 22008KT 08/M02 A299 RMK A01 T00821017  RH  050%=      5-min Rain = 0
KDVS 100410Z 22009KT 08/M02 A299 RMK A01 T00811018  RH  050%=      5-min Rain = 0
KDVS 100415Z 21009KT 08/M02 A299 RMK A01 T00791017  RH  051%=      5-min Rain = 0
KDVS 100420Z 22010KT 08/M02 A299 RMK A01 T00791017  RH  051%=      5-min Rain = 0
KDVS 100425Z 22010KT 08/M02 A299 RMK A01 T00821015  RH  051%=      5-min Rain = 0
KDVS 100430Z 22010KT 08/M01 A299 RMK A01 T00821014  RH  051%=      5-min Rain = 0
KDVS 100435Z 22009KT 08/M01 A299 RMK A01 T00831014  RH  051%=      5-min Rain = 0
KDVS 100440Z 22009KT 08/M01 A299 RMK A01 T00831013  RH  051%=      5-min Rain = 0
KDVS 100445Z 22008KT 08/M01 A299 RMK A01 T00831014  RH  051%=      5-min Rain = 0
KDVS 100450Z 22008KT 08/M01 A299 RMK A01 T00811014  RH  052%=      5-min Rain = 0
KDVS 100455Z 22008KT 08/M01 A299 RMK A01 T00821014  RH  051%=      5-min Rain = 0
KDVS 100500Z 22008KT 08/M02 A299 RMK A01 T00811015  RH  051%=      5-min Rain = 0
KDVS 100505Z 23007KT 08/M02 A299 RMK A01 T00791015  RH  052%=      5-min Rain = 0
KDVS 100510Z 23008KT 08/M01 A299 RMK A01 T00771014  RH  053%=      5-min Rain = 0
KDVS 100515Z 22009KT 08/M01 A299 RMK A01 T00791013  RH  053%=      5-min Rain = 0
KDVS 100520Z 22009KT 08/M01 A299 RMK A01 T00801013  RH  052%=      5-min Rain = 0
KDVS 100525Z 22008KT 08/M01 A299 RMK A01 T00811013  RH  052%=      5-min Rain = 0
KDVS 100530Z 22008KT 08/M01 A299 RMK A01 T00791013  RH  053%=      5-min Rain = 0
KDVS 100535Z 21007KT 08/M01 A2989 RMK A01 T00751014  RH  053%=      5-min Rain = 0
KDVS 100540Z 21007KT 07/M01 A2989 RMK A01 T00721014  RH  055%=      5-min Rain = 0
KDVS 100545Z 22007KT 07/M01 A2989 RMK A01 T00711014  RH  055%=      5-min Rain = 0
KDVS 100550Z 21008KT 07/M01 A2988 RMK A01 T00691014  RH  056%=      5-min Rain = 0
KDVS 100555Z 21009KT 07/M01 A2988 RMK A01 T00691013  RH  056%=      5-min Rain = 0

Page generated in 0.0091 seconds.